createdAt,value
2023-02-18T00:01:37.459Z,0.73
2023-02-18T00:04:05.688Z,0.70
2023-02-18T00:06:36.431Z,0.83
2023-02-18T00:09:06.292Z,0.83
2023-02-18T00:11:37.072Z,1.00
2023-02-18T00:14:09.858Z,0.93
2023-02-18T00:16:38.222Z,1.03
2023-02-18T00:19:12.163Z,0.90
2023-02-18T00:21:40.243Z,1.00
2023-02-18T00:24:09.230Z,0.60
2023-02-18T00:26:38.609Z,0.70
2023-02-18T00:29:06.596Z,0.70
2023-02-18T00:31:36.813Z,0.70
2023-02-18T00:34:06.315Z,0.60
2023-02-18T00:36:34.906Z,0.90
2023-02-18T00:39:05.005Z,0.77
2023-02-18T00:41:33.601Z,0.90
2023-02-18T00:44:03.263Z,0.70
2023-02-18T00:46:31.725Z,1.20
2023-02-18T00:48:59.719Z,0.80
2023-02-18T00:51:27.964Z,0.60
2023-02-18T00:53:56.284Z,0.73
2023-02-18T00:56:24.508Z,0.80
2023-02-18T00:58:53.164Z,0.93
2023-02-18T01:01:22.741Z,0.90
2023-02-18T01:03:51.020Z,1.30
2023-02-18T01:06:18.990Z,0.60
2023-02-18T01:08:46.955Z,0.90
2023-02-18T01:11:15.573Z,0.80
2023-02-18T01:13:43.615Z,0.80
2023-02-18T01:16:11.929Z,1.40
2023-02-18T01:18:41.913Z,0.97
2023-02-18T01:21:10.706Z,1.00
2023-02-18T01:23:40.086Z,0.90
2023-02-18T01:26:08.708Z,0.90
2023-02-18T01:28:37.446Z,0.73
2023-02-18T01:31:07.746Z,1.00
2023-02-18T01:33:35.968Z,0.90
2023-02-18T01:36:06.892Z,1.10
2023-02-18T01:38:35.383Z,0.90
2023-02-18T01:41:03.496Z,1.00
2023-02-18T01:43:32.123Z,0.87
2023-02-18T01:46:16.570Z,1.00
2023-02-18T01:48:47.836Z,1.10
2023-02-18T01:51:20.954Z,1.00
2023-02-18T01:53:55.145Z,1.10
2023-02-18T01:56:27.886Z,1.03
2023-02-18T01:58:58.266Z,1.00
2023-02-18T02:01:27.733Z,1.00
2023-02-18T02:03:56.533Z,1.07
2023-02-18T02:06:26.802Z,1.00
2023-02-18T02:08:59.313Z,1.10
2023-02-18T02:11:58.432Z,1.30
2023-02-18T02:14:40.384Z,1.00
2023-02-18T02:17:18.434Z,1.10
2023-02-18T02:20:37.463Z,0.90
2023-02-18T02:24:02.180Z,1.20
2023-02-18T02:26:59.432Z,1.07
2023-02-18T02:30:00.168Z,1.27
2023-02-18T02:33:04.298Z,1.10
2023-02-18T02:35:36.985Z,1.20
2023-02-18T02:38:13.976Z,1.30
2023-02-18T02:40:47.244Z,0.90
2023-02-18T02:43:22.517Z,1.17
2023-02-18T02:46:01.610Z,0.93
2023-02-18T02:48:38.855Z,1.20
2023-02-18T02:51:12.266Z,1.73
2023-02-18T02:53:42.748Z,1.07
2023-02-18T02:56:15.989Z,1.03
2023-02-18T02:58:45.602Z,0.90
2023-02-18T03:01:26.130Z,1.20
2023-02-18T03:04:09.655Z,0.93
2023-02-18T03:06:58.025Z,1.63
2023-02-18T03:09:36.151Z,1.20
2023-02-18T03:12:12.120Z,1.00
2023-02-18T03:14:48.178Z,1.00
2023-02-18T03:17:24.297Z,1.00
2023-02-18T03:19:58.959Z,1.20
2023-02-18T03:22:32.003Z,1.00
2023-02-18T03:25:02.544Z,1.07
2023-02-18T03:27:33.028Z,0.90
2023-02-18T03:30:06.511Z,0.90
2023-02-18T03:32:36.513Z,1.30
2023-02-18T03:35:08.628Z,1.10
2023-02-18T03:37:43.028Z,0.90
2023-02-18T03:40:12.516Z,0.93
2023-02-18T03:42:40.484Z,0.80
2023-02-18T03:45:09.056Z,1.23
2023-02-18T03:47:37.317Z,1.27
2023-02-18T03:50:05.849Z,1.10
2023-02-18T03:52:36.547Z,0.70
2023-02-18T03:55:07.143Z,1.30
2023-02-18T03:57:35.106Z,1.07
2023-02-18T04:00:04.256Z,1.07
2023-02-18T04:02:32.246Z,1.10
2023-02-18T04:05:00.331Z,1.30
2023-02-18T04:07:28.338Z,1.00
2023-02-18T04:09:56.248Z,1.00
2023-02-18T04:12:25.870Z,0.90
2023-02-18T04:14:53.981Z,1.10
2023-02-18T04:17:21.980Z,2.23
2023-02-18T04:19:49.910Z,0.90
2023-02-18T04:22:17.936Z,1.10
2023-02-18T04:24:46.005Z,1.40
2023-02-18T04:27:14.110Z,1.03
2023-02-18T04:29:43.996Z,1.07
2023-02-18T04:32:13.043Z,1.00
2023-02-18T04:34:41.003Z,1.50
2023-02-18T04:37:09.024Z,1.23
2023-02-18T04:39:37.034Z,1.40
2023-02-18T04:42:08.876Z,1.00
2023-02-18T04:44:37.106Z,1.00
2023-02-18T04:47:07.373Z,1.30
2023-02-18T04:49:35.440Z,0.93
2023-02-18T04:52:03.590Z,0.90
2023-02-18T04:54:31.788Z,0.90
2023-02-18T04:56:59.774Z,1.20
2023-02-18T04:59:27.794Z,1.20
2023-02-18T05:01:55.791Z,1.20
2023-02-18T05:04:25.190Z,1.00
2023-02-18T05:06:53.256Z,1.20
2023-02-18T05:09:21.280Z,1.30
2023-02-18T05:11:49.253Z,1.27
2023-02-18T05:14:17.689Z,1.10
2023-02-18T05:16:45.988Z,1.60
2023-02-18T05:19:15.933Z,1.20
2023-02-18T05:21:45.454Z,1.10
2023-02-18T05:24:13.533Z,1.23
2023-02-18T05:26:41.795Z,1.20
2023-02-18T05:29:09.750Z,1.30
2023-02-18T05:31:38.562Z,1.50
2023-02-18T05:34:06.644Z,1.40
2023-02-18T05:36:34.639Z,1.40
2023-02-18T05:39:04.068Z,1.50
2023-02-18T05:41:32.034Z,1.57
2023-02-18T05:44:17.733Z,1.20
2023-02-18T05:46:45.875Z,1.27
2023-02-18T05:49:14.454Z,1.63
2023-02-18T05:51:42.603Z,1.50
2023-02-18T05:54:11.904Z,2.50
2023-02-18T05:56:39.899Z,1.90
2023-02-18T05:59:07.847Z,1.20
2023-02-18T06:01:35.862Z,1.20
2023-02-18T06:04:03.826Z,1.30
2023-02-18T06:06:31.900Z,1.40
2023-02-18T06:09:00.280Z,1.33
2023-02-18T06:11:29.674Z,1.93
2023-02-18T06:13:57.657Z,1.40
2023-02-18T06:16:25.972Z,1.10
2023-02-18T06:18:53.987Z,1.40
2023-02-18T06:21:22.082Z,0.97
2023-02-18T06:23:50.035Z,1.03
2023-02-18T06:26:18.166Z,0.97
2023-02-18T06:28:47.776Z,1.50
2023-02-18T06:31:16.571Z,1.33
2023-02-18T06:33:44.676Z,1.23
2023-02-18T06:36:13.667Z,1.40
2023-02-18T06:38:42.989Z,1.20
2023-02-18T06:41:11.957Z,1.67
2023-02-18T06:43:40.428Z,1.07
2023-02-18T06:46:10.303Z,1.63
2023-02-18T06:48:39.020Z,1.50
2023-02-18T06:51:07.574Z,1.33
2023-02-18T06:53:35.559Z,1.43
2023-02-18T06:56:03.577Z,1.10
2023-02-18T06:58:31.573Z,1.40
2023-02-18T07:00:59.989Z,1.67
2023-02-18T07:03:29.464Z,1.10
2023-02-18T07:05:57.694Z,1.00
2023-02-18T07:08:25.685Z,1.23
2023-02-18T07:10:53.685Z,1.30
2023-02-18T07:13:21.718Z,1.50
2023-02-18T07:15:49.736Z,1.43
2023-02-18T07:18:17.919Z,1.37
2023-02-18T07:20:47.445Z,1.60
2023-02-18T07:23:15.488Z,2.10
2023-02-18T07:25:43.498Z,1.47
2023-02-18T07:28:13.848Z,1.37
2023-02-18T07:30:41.834Z,1.17
2023-02-18T07:33:09.872Z,1.47
2023-02-18T07:35:37.830Z,1.27
2023-02-18T07:38:07.172Z,1.57
2023-02-18T07:40:35.228Z,1.50
2023-02-18T07:43:03.240Z,1.00
2023-02-18T07:45:31.354Z,1.40
2023-02-18T07:47:59.360Z,1.80
2023-02-18T07:50:27.316Z,1.37
2023-02-18T07:52:55.298Z,1.40
2023-02-18T07:55:24.685Z,1.10
2023-02-18T07:58:00.900Z,1.60
2023-02-18T08:00:28.871Z,1.33
2023-02-18T08:02:56.881Z,1.40
2023-02-18T08:05:24.957Z,1.57
2023-02-18T08:07:52.936Z,1.17
2023-02-18T08:10:21.010Z,1.40
2023-02-18T08:12:50.418Z,1.60
2023-02-18T08:15:18.546Z,1.20
2023-02-18T08:17:46.552Z,1.23
2023-02-18T08:20:14.826Z,1.37
2023-02-18T08:22:42.889Z,1.50
2023-02-18T08:25:23.992Z,1.17
2023-02-18T08:27:58.217Z,1.70
2023-02-18T08:30:26.802Z,1.30
2023-02-18T08:32:55.346Z,1.30
2023-02-18T08:35:23.397Z,1.50
2023-02-18T08:37:53.056Z,1.33
2023-02-18T08:40:22.539Z,1.83
2023-02-18T08:42:50.635Z,1.20
2023-02-18T08:45:20.362Z,1.00
2023-02-18T08:48:18.620Z,1.67
2023-02-18T08:50:36.627Z,1.10
2023-02-18T08:53:05.764Z,1.57
2023-02-18T08:55:35.194Z,1.10
2023-02-18T08:58:07.667Z,1.20
2023-02-18T09:00:37.728Z,1.30
2023-02-18T09:03:05.965Z,1.37
2023-02-18T09:05:33.918Z,0.93
2023-02-18T09:08:01.937Z,1.20
2023-02-18T09:10:30.101Z,1.53
2023-02-18T09:12:58.260Z,1.10
2023-02-18T09:15:26.235Z,0.90
2023-02-18T09:17:55.598Z,0.90
2023-02-18T09:20:23.632Z,1.20
2023-02-18T09:22:51.558Z,0.87
2023-02-18T09:25:19.691Z,1.10
2023-02-18T09:27:47.700Z,1.00
2023-02-18T09:30:16.300Z,0.97
2023-02-18T09:32:44.338Z,1.40
2023-02-18T09:35:13.742Z,1.13
2023-02-18T09:37:41.968Z,1.00
2023-02-18T09:40:22.657Z,1.50
2023-02-18T09:42:50.856Z,1.17
2023-02-18T09:45:19.085Z,1.00
2023-02-18T09:47:47.939Z,1.07
2023-02-18T09:50:22.144Z,1.00
2023-02-18T09:52:50.601Z,1.10
2023-02-18T09:55:22.178Z,1.43
2023-02-18T09:57:53.154Z,0.97
2023-02-18T10:00:24.419Z,0.97
2023-02-18T10:02:57.090Z,1.00
2023-02-18T10:05:29.422Z,0.93
2023-02-18T10:08:02.090Z,0.90
2023-02-18T10:10:38.658Z,1.20
2023-02-18T10:13:08.120Z,1.10
2023-02-18T10:15:38.422Z,0.73
2023-02-18T10:18:15.716Z,0.80
2023-02-18T10:20:45.502Z,1.10
2023-02-18T10:23:15.732Z,0.87
2023-02-18T10:25:46.302Z,1.30
2023-02-18T10:28:14.784Z,1.30
2023-02-18T10:30:47.320Z,0.90
2023-02-18T10:33:28.472Z,0.93
2023-02-18T10:36:04.747Z,1.00
2023-02-18T10:38:42.093Z,0.87
2023-02-18T10:41:18.801Z,1.00
2023-02-18T10:43:54.932Z,0.90
2023-02-18T10:46:32.850Z,0.83
2023-02-18T10:49:17.665Z,0.90
2023-02-18T10:51:54.262Z,1.00
2023-02-18T10:54:25.895Z,0.90
2023-02-18T10:56:59.264Z,1.00
2023-02-18T10:59:32.910Z,0.90
2023-02-18T11:02:04.226Z,1.03
2023-02-18T11:04:39.409Z,0.90
2023-02-18T11:07:15.033Z,1.00
2023-02-18T11:09:49.058Z,0.77
2023-02-18T11:12:21.571Z,0.80
2023-02-18T11:14:51.472Z,0.80
2023-02-18T11:17:28.725Z,1.00
2023-02-18T11:19:58.819Z,0.80
2023-02-18T11:22:32.963Z,0.73
2023-02-18T11:25:03.098Z,0.90
2023-02-18T11:27:35.786Z,0.90
2023-02-18T11:30:07.237Z,0.90
2023-02-18T11:32:37.168Z,1.00
2023-02-18T11:35:06.189Z,0.80
2023-02-18T11:37:38.515Z,1.00
2023-02-18T11:40:08.762Z,0.90
2023-02-18T11:42:36.763Z,0.90
2023-02-18T11:45:05.839Z,0.90
2023-02-18T11:47:35.770Z,0.90
2023-02-18T11:50:17.441Z,0.93
2023-02-18T11:52:48.495Z,1.10
2023-02-18T11:55:19.533Z,0.83
2023-02-18T11:57:52.025Z,0.90
2023-02-18T12:00:30.275Z,1.00
2023-02-18T12:03:01.129Z,0.80
2023-02-18T12:05:30.025Z,0.90
2023-02-18T12:08:04.482Z,1.00
2023-02-18T12:10:37.444Z,1.00
2023-02-18T12:13:08.828Z,1.00
2023-02-18T12:15:50.033Z,0.87
2023-02-18T12:18:40.457Z,1.00
2023-02-18T12:21:36.216Z,1.00
2023-02-18T12:24:22.533Z,1.00
2023-02-18T12:26:59.613Z,1.00
2023-02-18T12:29:47.079Z,0.90
2023-02-18T12:32:25.321Z,1.00
2023-02-18T12:35:03.046Z,1.07
2023-02-18T12:37:51.512Z,1.10
2023-02-18T12:40:40.789Z,1.17
2023-02-18T12:43:19.946Z,1.20
2023-02-18T12:46:04.668Z,1.10
2023-02-18T12:48:50.404Z,1.37
2023-02-18T12:51:32.785Z,1.27
2023-02-18T12:54:14.843Z,1.10
2023-02-18T12:56:58.902Z,1.17
2023-02-18T12:59:48.738Z,1.50
2023-02-18T13:02:33.686Z,1.27
2023-02-18T13:05:11.154Z,1.40
2023-02-18T13:08:01.459Z,1.13
2023-02-18T13:10:45.111Z,1.17
2023-02-18T13:13:19.558Z,1.37
2023-02-18T13:15:54.125Z,1.50
2023-02-18T13:18:26.691Z,1.80
2023-02-18T13:20:58.982Z,1.47
2023-02-18T13:23:31.433Z,1.83
2023-02-18T13:26:03.253Z,1.73
2023-02-18T13:28:39.162Z,1.90
2023-02-18T13:31:20.383Z,1.30
2023-02-18T13:33:53.938Z,1.67
2023-02-18T13:36:32.931Z,1.87
2023-02-18T13:39:06.865Z,1.50
2023-02-18T13:41:39.295Z,1.77
2023-02-18T13:44:54.249Z,1.40
2023-02-18T13:47:38.499Z,1.67
2023-02-18T13:50:27.987Z,1.67
2023-02-18T13:53:14.022Z,1.37
2023-02-18T13:55:47.745Z,1.33
2023-02-18T13:58:18.455Z,1.30
2023-02-18T14:00:52.213Z,1.53
2023-02-18T14:03:50.699Z,1.80
2023-02-18T14:06:21.027Z,1.77
2023-02-18T14:08:49.721Z,1.70
2023-02-18T14:11:41.510Z,1.50
2023-02-18T14:14:32.027Z,1.20
2023-02-18T14:17:41.860Z,1.80
2023-02-18T14:20:33.512Z,1.33
2023-02-18T14:23:01.691Z,1.70
2023-02-18T14:25:37.721Z,1.37
2023-02-18T14:28:39.832Z,1.40
2023-02-18T14:31:30.355Z,1.80
2023-02-18T14:34:23.783Z,1.40
2023-02-18T14:37:00.954Z,1.30
2023-02-18T14:39:41.218Z,2.10
2023-02-18T14:42:17.140Z,1.60
2023-02-18T14:44:58.486Z,1.70
2023-02-18T14:47:34.114Z,1.30
2023-02-18T14:50:05.863Z,0.90
2023-02-18T14:52:37.548Z,1.37
2023-02-18T14:55:09.311Z,1.30
2023-02-18T14:57:42.120Z,1.63
2023-02-18T15:00:17.438Z,1.70
2023-02-18T15:02:49.111Z,1.10
2023-02-18T15:05:20.740Z,1.50
2023-02-18T15:08:03.663Z,1.70
2023-02-18T15:10:41.387Z,1.70
2023-02-18T15:13:14.240Z,1.50
2023-02-18T15:15:44.418Z,1.30
2023-02-18T15:18:22.809Z,1.60
2023-02-18T15:20:52.469Z,1.97
2023-02-18T15:23:20.854Z,1.50
2023-02-18T15:25:51.890Z,1.60
2023-02-18T15:28:25.483Z,1.37
2023-02-18T15:30:53.598Z,1.50
2023-02-18T15:33:22.752Z,1.33
2023-02-18T15:35:52.399Z,1.30
2023-02-18T15:38:21.745Z,1.70
2023-02-18T15:40:52.286Z,1.70
2023-02-18T15:43:25.128Z,1.90
2023-02-18T15:45:55.940Z,1.30
2023-02-18T15:48:33.105Z,1.33
2023-02-18T15:51:16.281Z,1.30
2023-02-18T15:53:47.594Z,1.07
2023-02-18T15:56:21.729Z,1.37
2023-02-18T15:58:49.882Z,1.60
2023-02-18T16:01:28.443Z,1.57
2023-02-18T16:03:57.629Z,1.67
2023-02-18T16:06:29.993Z,1.20
2023-02-18T16:09:00.932Z,1.30
2023-02-18T16:11:33.010Z,1.80
2023-02-18T16:14:01.341Z,1.63
2023-02-18T16:16:32.422Z,1.40
2023-02-18T16:19:00.924Z,2.20
2023-02-18T16:21:38.818Z,1.60
2023-02-18T16:24:24.748Z,1.70
2023-02-18T16:26:55.585Z,1.70
2023-02-18T16:29:26.720Z,1.33
2023-02-18T16:31:54.766Z,1.60
2023-02-18T16:34:22.827Z,1.20
2023-02-18T16:37:09.812Z,1.83
2023-02-18T16:39:38.269Z,1.63
2023-02-18T16:42:09.924Z,1.57
2023-02-18T16:44:38.189Z,1.80
2023-02-18T16:47:06.838Z,1.70
2023-02-18T16:49:36.116Z,1.60
2023-02-18T16:52:09.308Z,1.90
2023-02-18T16:54:37.328Z,1.70
2023-02-18T16:57:05.392Z,1.53
2023-02-18T16:59:33.606Z,1.67
2023-02-18T17:02:01.795Z,2.10
2023-02-18T17:04:29.917Z,1.67
2023-02-18T17:06:57.891Z,1.97
2023-02-18T17:09:27.648Z,1.87
2023-02-18T17:11:57.012Z,1.60
2023-02-18T17:14:25.159Z,1.60
2023-02-18T17:16:55.840Z,1.73
2023-02-18T17:19:23.940Z,2.40
2023-02-18T17:21:52.034Z,1.57
2023-02-18T17:24:20.300Z,1.70
2023-02-18T17:26:49.655Z,1.90
2023-02-18T17:29:19.625Z,1.97
2023-02-18T17:31:48.458Z,1.50
2023-02-18T17:34:21.230Z,2.57
2023-02-18T17:36:49.924Z,1.97
2023-02-18T17:39:19.017Z,1.57
2023-02-18T17:41:47.121Z,2.20
2023-02-18T17:44:18.852Z,2.07
2023-02-18T17:46:49.704Z,1.70
2023-02-18T17:49:18.241Z,1.73
2023-02-18T17:51:46.694Z,2.33
2023-02-18T17:54:16.403Z,2.00
2023-02-18T17:56:44.980Z,1.80
2023-02-18T17:59:13.128Z,1.83
2023-02-18T18:01:43.361Z,2.00
2023-02-18T18:04:14.472Z,2.00
2023-02-18T18:06:43.034Z,1.93
2023-02-18T18:09:11.107Z,1.60
2023-02-18T18:11:39.638Z,1.80
2023-02-18T18:14:07.822Z,3.10
2023-02-18T18:16:35.884Z,2.27
2023-02-18T18:19:05.272Z,2.17
2023-02-18T18:21:35.575Z,1.97
2023-02-18T18:24:04.197Z,2.30
2023-02-18T18:26:32.252Z,2.27
2023-02-18T18:29:00.309Z,2.33
2023-02-18T18:31:28.414Z,1.73
2023-02-18T18:33:57.495Z,2.20
2023-02-18T18:36:26.923Z,1.57
2023-02-18T18:38:54.842Z,2.03
2023-02-18T18:41:23.734Z,1.90
2023-02-18T18:43:51.932Z,1.93
2023-02-18T18:46:20.485Z,1.90
2023-02-18T18:48:48.475Z,2.17
2023-02-18T18:51:17.694Z,1.60
2023-02-18T18:53:47.345Z,2.00
2023-02-18T18:56:15.382Z,1.80
2023-02-18T18:58:43.498Z,2.67
2023-02-18T19:01:17.390Z,1.63
2023-02-18T19:03:45.837Z,1.80
2023-02-18T19:06:15.825Z,1.67
2023-02-18T19:08:45.243Z,1.73
2023-02-18T19:11:15.407Z,2.00
2023-02-18T19:13:45.109Z,2.13
2023-02-18T19:16:18.763Z,1.23
2023-02-18T19:18:47.459Z,1.37
2023-02-18T19:21:16.730Z,1.70
2023-02-18T19:23:44.880Z,1.73
2023-02-18T19:26:16.572Z,2.67
2023-02-18T19:28:44.665Z,2.13
2023-02-18T19:31:13.568Z,1.80
2023-02-18T19:33:45.468Z,1.63
2023-02-18T19:36:17.024Z,1.53
2023-02-18T19:38:45.933Z,1.80
2023-02-18T19:41:17.685Z,1.73
2023-02-18T19:43:47.032Z,2.60
2023-02-18T19:46:17.464Z,2.00
2023-02-18T19:48:49.247Z,2.20
2023-02-18T19:51:17.481Z,2.30
2023-02-18T19:53:45.983Z,1.83
2023-02-18T19:56:15.352Z,1.97
2023-02-18T19:58:43.454Z,1.77
2023-02-18T20:01:14.788Z,1.90
2023-02-18T20:03:42.886Z,1.83
2023-02-18T20:06:16.584Z,2.20
2023-02-18T20:08:44.673Z,1.80
2023-02-18T20:11:12.658Z,1.90
2023-02-18T20:13:42.136Z,1.73
2023-02-18T20:16:10.789Z,1.87
2023-02-18T20:18:38.835Z,1.57
2023-02-18T20:21:07.129Z,2.17
2023-02-18T20:23:35.206Z,1.60
2023-02-18T20:26:07.892Z,1.73
2023-02-18T20:28:35.871Z,2.10
2023-02-18T20:31:11.263Z,2.37
2023-02-18T20:33:42.152Z,2.73
2023-02-18T20:36:11.037Z,2.20
2023-02-18T20:38:39.383Z,2.70
2023-02-18T20:41:09.148Z,2.40
2023-02-18T20:43:37.729Z,2.70
2023-02-18T20:46:07.272Z,3.30
2023-02-18T20:48:37.953Z,2.23
2023-02-18T20:51:06.853Z,1.80
2023-02-18T20:53:35.913Z,2.53
2023-02-18T20:56:04.229Z,1.87
2023-02-18T20:58:32.563Z,2.10
2023-02-18T21:01:02.424Z,2.37
2023-02-18T21:03:31.273Z,2.00
2023-02-18T21:06:02.649Z,1.80
2023-02-18T21:08:30.823Z,1.70
2023-02-18T21:11:02.646Z,2.30
2023-02-18T21:13:30.989Z,1.50
2023-02-18T21:15:59.026Z,2.37
2023-02-18T21:18:27.078Z,1.87
2023-02-18T21:20:55.024Z,1.83
2023-02-18T21:23:24.412Z,2.70
2023-02-18T21:25:52.393Z,2.53
2023-02-18T21:28:20.477Z,2.03
2023-02-18T21:30:48.527Z,2.03
2023-02-18T21:33:16.499Z,1.90
2023-02-18T21:35:44.974Z,2.00
2023-02-18T21:38:13.013Z,2.37
2023-02-18T21:40:43.421Z,1.93
2023-02-18T21:43:12.428Z,2.10
2023-02-18T21:45:40.444Z,1.70
2023-02-18T21:48:22.465Z,1.97
2023-02-18T21:50:51.147Z,1.83
2023-02-18T21:53:19.092Z,2.23
2023-02-18T21:56:02.186Z,1.50
2023-02-18T21:58:31.688Z,1.67
2023-02-18T22:00:59.629Z,1.90
2023-02-18T22:03:27.668Z,1.87
2023-02-18T22:05:55.675Z,1.70
2023-02-18T22:08:23.657Z,2.00
2023-02-18T22:10:53.056Z,2.03
2023-02-18T22:13:21.020Z,2.07
2023-02-18T22:15:56.000Z,1.93
2023-02-18T22:18:24.255Z,1.87
2023-02-18T22:20:52.226Z,2.57
2023-02-18T22:23:20.343Z,2.43
2023-02-18T22:25:49.192Z,2.10
2023-02-18T22:28:18.792Z,2.10
2023-02-18T22:30:46.777Z,1.70
2023-02-18T22:33:14.755Z,2.30
2023-02-18T22:35:42.735Z,2.03
2023-02-18T22:38:10.907Z,2.70
2023-02-18T22:40:38.939Z,2.53
2023-02-18T22:43:06.940Z,2.80
2023-02-18T22:45:38.430Z,2.67
2023-02-18T22:48:06.795Z,2.77
2023-02-18T22:50:35.503Z,2.80
2023-02-18T22:53:04.224Z,2.33
2023-02-18T22:55:32.366Z,2.80
2023-02-18T22:58:00.534Z,3.30
2023-02-18T23:00:28.690Z,3.47
2023-02-18T23:02:57.987Z,3.37
2023-02-18T23:05:26.048Z,2.90
2023-02-18T23:07:54.122Z,3.70
2023-02-18T23:10:22.184Z,4.20
2023-02-18T23:12:50.189Z,3.80
2023-02-18T23:15:18.344Z,3.67
2023-02-18T23:17:49.774Z,3.90
2023-02-18T23:20:39.778Z,4.10
2023-02-18T23:23:07.848Z,4.10
2023-02-18T23:25:35.877Z,4.07
2023-02-18T23:28:03.843Z,3.50
2023-02-18T23:30:31.952Z,3.90
2023-02-18T23:33:00.033Z,3.20
2023-02-18T23:35:29.395Z,3.27
2023-02-18T23:38:06.360Z,3.17
2023-02-18T23:40:35.389Z,3.43
2023-02-18T23:43:03.341Z,3.27
2023-02-18T23:45:31.288Z,2.90
2023-02-18T23:47:59.257Z,2.67
2023-02-18T23:50:27.307Z,3.20
2023-02-18T23:52:57.034Z,2.93
2023-02-18T23:55:25.016Z,2.73
2023-02-18T23:57:52.970Z,2.50
